sensor_id;sensor_type;location;lat;lon;timestamp;P1;durP1;ratioP1;P2;durP2;ratioP2
78871;SDS011;68247;43.514;1.502;2023-09-18T00:00:24;10.93;;;3.97;;
78871;SDS011;68247;43.514;1.502;2023-09-18T00:02:49;9.73;;;3.60;;
78871;SDS011;68247;43.514;1.502;2023-09-18T00:05:15;8.03;;;3.33;;
78871;SDS011;68247;43.514;1.502;2023-09-18T00:07:44;10.20;;;3.72;;
78871;SDS011;68247;43.514;1.502;2023-09-18T00:10:13;10.97;;;3.90;;
78871;SDS011;68247;43.514;1.502;2023-09-18T00:12:39;11.15;;;3.67;;
78871;SDS011;68247;43.514;1.502;2023-09-18T00:15:05;8.23;;;4.03;;
78871;SDS011;68247;43.514;1.502;2023-09-18T00:17:33;8.43;;;3.78;;
78871;SDS011;68247;43.514;1.502;2023-09-18T00:19:59;12.30;;;4.60;;
78871;SDS011;68247;43.514;1.502;2023-09-18T00:22:25;8.33;;;4.03;;
78871;SDS011;68247;43.514;1.502;2023-09-18T00:24:50;12.37;;;4.40;;
78871;SDS011;68247;43.514;1.502;2023-09-18T00:27:16;9.37;;;4.37;;
78871;SDS011;68247;43.514;1.502;2023-09-18T00:29:41;9.43;;;4.40;;
78871;SDS011;68247;43.514;1.502;2023-09-18T00:32:07;9.80;;;4.57;;
78871;SDS011;68247;43.514;1.502;2023-09-18T00:34:33;12.27;;;4.43;;
78871;SDS011;68247;43.514;1.502;2023-09-18T00:36:58;10.50;;;4.57;;
78871;SDS011;68247;43.514;1.502;2023-09-18T00:39:24;9.90;;;4.00;;
78871;SDS011;68247;43.514;1.502;2023-09-18T00:41:50;15.52;;;4.20;;
78871;SDS011;68247;43.514;1.502;2023-09-18T00:44:19;10.67;;;4.23;;
78871;SDS011;68247;43.514;1.502;2023-09-18T00:46:45;8.98;;;3.97;;
78871;SDS011;68247;43.514;1.502;2023-09-18T00:49:10;12.63;;;4.53;;
78871;SDS011;68247;43.514;1.502;2023-09-18T00:51:37;12.20;;;4.70;;
78871;SDS011;68247;43.514;1.502;2023-09-18T00:54:02;12.13;;;4.85;;
78871;SDS011;68247;43.514;1.502;2023-09-18T00:56:28;11.33;;;5.10;;
78871;SDS011;68247;43.514;1.502;2023-09-18T00:58:53;12.13;;;4.47;;
78871;SDS011;68247;43.514;1.502;2023-09-18T01:01:19;13.63;;;4.78;;
78871;SDS011;68247;43.514;1.502;2023-09-18T01:03:47;10.63;;;4.40;;
78871;SDS011;68247;43.514;1.502;2023-09-18T01:06:14;11.02;;;4.50;;
78871;SDS011;68247;43.514;1.502;2023-09-18T01:08:40;12.85;;;4.40;;
78871;SDS011;68247;43.514;1.502;2023-09-18T01:14:37;11.70;;;4.80;;
78871;SDS011;68247;43.514;1.502;2023-09-18T01:16:53;13.43;;;4.70;;
78871;SDS011;68247;43.514;1.502;2023-09-18T01:19:34;10.48;;;4.35;;
78871;SDS011;68247;43.514;1.502;2023-09-18T01:22:00;12.35;;;4.60;;
78871;SDS011;68247;43.514;1.502;2023-09-18T01:24:26;12.33;;;4.97;;
78871;SDS011;68247;43.514;1.502;2023-09-18T01:26:51;12.27;;;4.57;;
78871;SDS011;68247;43.514;1.502;2023-09-18T01:29:17;10.77;;;4.57;;
78871;SDS011;68247;43.514;1.502;2023-09-18T01:31:44;13.10;;;4.82;;
78871;SDS011;68247;43.514;1.502;2023-09-18T01:34:12;13.77;;;5.03;;
78871;SDS011;68247;43.514;1.502;2023-09-18T01:36:37;13.50;;;4.80;;
78871;SDS011;68247;43.514;1.502;2023-09-18T01:39:03;14.43;;;5.03;;
78871;SDS011;68247;43.514;1.502;2023-09-18T01:41:30;12.80;;;5.25;;
78871;SDS011;68247;43.514;1.502;2023-09-18T01:43:55;15.13;;;5.40;;
78871;SDS011;68247;43.514;1.502;2023-09-18T01:46:21;15.03;;;4.97;;
78871;SDS011;68247;43.514;1.502;2023-09-18T01:48:46;9.73;;;3.92;;
78871;SDS011;68247;43.514;1.502;2023-09-18T01:51:15;8.77;;;3.73;;
78871;SDS011;68247;43.514;1.502;2023-09-18T01:53:41;10.05;;;4.00;;
78871;SDS011;68247;43.514;1.502;2023-09-18T01:56:06;8.13;;;3.90;;
78871;SDS011;68247;43.514;1.502;2023-09-18T01:58:32;10.93;;;3.53;;
78871;SDS011;68247;43.514;1.502;2023-09-18T02:01:00;14.57;;;4.20;;
78871;SDS011;68247;43.514;1.502;2023-09-18T02:03:26;13.00;;;4.85;;
78871;SDS011;68247;43.514;1.502;2023-09-18T02:05:51;10.47;;;4.40;;
78871;SDS011;68247;43.514;1.502;2023-09-18T02:08:16;11.20;;;5.00;;
78871;SDS011;68247;43.514;1.502;2023-09-18T02:10:42;15.48;;;5.20;;
78871;SDS011;68247;43.514;1.502;2023-09-18T02:13:07;14.20;;;5.17;;
78871;SDS011;68247;43.514;1.502;2023-09-18T02:15:33;16.70;;;6.03;;
78871;SDS011;68247;43.514;1.502;2023-09-18T02:18:00;15.93;;;5.60;;
78871;SDS011;68247;43.514;1.502;2023-09-18T02:20:25;18.00;;;6.70;;
78871;SDS011;68247;43.514;1.502;2023-09-18T02:22:50;16.33;;;6.20;;
78871;SDS011;68247;43.514;1.502;2023-09-18T02:25:16;18.27;;;6.63;;
78871;SDS011;68247;43.514;1.502;2023-09-18T02:27:42;17.15;;;4.97;;
78871;SDS011;68247;43.514;1.502;2023-09-18T02:30:08;12.38;;;5.10;;
78871;SDS011;68247;43.514;1.502;2023-09-18T02:32:35;19.57;;;5.67;;
78871;SDS011;68247;43.514;1.502;2023-09-18T02:35:01;15.35;;;5.97;;
78871;SDS011;68247;43.514;1.502;2023-09-18T02:37:27;16.05;;;6.28;;
78871;SDS011;68247;43.514;1.502;2023-09-18T02:39:54;14.43;;;5.82;;
78871;SDS011;68247;43.514;1.502;2023-09-18T02:42:19;14.10;;;5.63;;
78871;SDS011;68247;43.514;1.502;2023-09-18T02:44:44;16.77;;;5.73;;
78871;SDS011;68247;43.514;1.502;2023-09-18T02:47:11;13.00;;;5.63;;
78871;SDS011;68247;43.514;1.502;2023-09-18T02:49:36;16.38;;;5.50;;
78871;SDS011;68247;43.514;1.502;2023-09-18T02:52:02;14.07;;;5.40;;
78871;SDS011;68247;43.514;1.502;2023-09-18T02:54:28;16.93;;;6.20;;
78871;SDS011;68247;43.514;1.502;2023-09-18T02:56:53;12.87;;;5.33;;
78871;SDS011;68247;43.514;1.502;2023-09-18T02:59:19;15.57;;;5.57;;
78871;SDS011;68247;43.514;1.502;2023-09-18T03:01:44;20.57;;;5.13;;
78871;SDS011;68247;43.514;1.502;2023-09-18T03:04:09;15.70;;;4.93;;
78871;SDS011;68247;43.514;1.502;2023-09-18T03:06:37;13.97;;;5.20;;
78871;SDS011;68247;43.514;1.502;2023-09-18T03:09:04;11.50;;;4.70;;
78871;SDS011;68247;43.514;1.502;2023-09-18T03:11:29;10.87;;;4.63;;
78871;SDS011;68247;43.514;1.502;2023-09-18T03:13:55;12.45;;;4.43;;
78871;SDS011;68247;43.514;1.502;2023-09-18T03:16:20;13.33;;;4.70;;
78871;SDS011;68247;43.514;1.502;2023-09-18T03:18:45;11.97;;;5.07;;
78871;SDS011;68247;43.514;1.502;2023-09-18T03:21:11;12.63;;;4.93;;
78871;SDS011;68247;43.514;1.502;2023-09-18T03:23:36;12.83;;;5.27;;
78871;SDS011;68247;43.514;1.502;2023-09-18T03:26:02;13.57;;;5.75;;
78871;SDS011;68247;43.514;1.502;2023-09-18T03:28:27;16.87;;;5.77;;
78871;SDS011;68247;43.514;1.502;2023-09-18T03:30:53;15.37;;;6.13;;
78871;SDS011;68247;43.514;1.502;2023-09-18T03:33:18;17.90;;;7.10;;
78871;SDS011;68247;43.514;1.502;2023-09-18T03:35:47;15.90;;;6.70;;
78871;SDS011;68247;43.514;1.502;2023-09-18T03:38:14;18.70;;;6.43;;
78871;SDS011;68247;43.514;1.502;2023-09-18T03:40:40;17.57;;;6.30;;
78871;SDS011;68247;43.514;1.502;2023-09-18T03:43:06;18.33;;;6.20;;
78871;SDS011;68247;43.514;1.502;2023-09-18T03:45:32;15.90;;;6.57;;
78871;SDS011;68247;43.514;1.502;2023-09-18T03:47:57;16.57;;;6.67;;
78871;SDS011;68247;43.514;1.502;2023-09-18T03:50:23;17.20;;;6.30;;
78871;SDS011;68247;43.514;1.502;2023-09-18T03:52:48;19.60;;;7.13;;
78871;SDS011;68247;43.514;1.502;2023-09-18T03:55:14;17.80;;;7.10;;
78871;SDS011;68247;43.514;1.502;2023-09-18T03:57:39;17.53;;;6.80;;
78871;SDS011;68247;43.514;1.502;2023-09-18T04:00:05;22.08;;;7.53;;
78871;SDS011;68247;43.514;1.502;2023-09-18T04:02:32;19.35;;;7.65;;
78871;SDS011;68247;43.514;1.502;2023-09-18T04:04:58;20.60;;;7.67;;
78871;SDS011;68247;43.514;1.502;2023-09-18T04:07:23;20.20;;;7.50;;
78871;SDS011;68247;43.514;1.502;2023-09-18T04:09:48;22.73;;;8.03;;
78871;SDS011;68247;43.514;1.502;2023-09-18T04:12:14;23.60;;;8.27;;
78871;SDS011;68247;43.514;1.502;2023-09-18T04:14:40;25.40;;;8.20;;
78871;SDS011;68247;43.514;1.502;2023-09-18T04:17:06;22.65;;;8.65;;
78871;SDS011;68247;43.514;1.502;2023-09-18T04:19:31;21.90;;;8.57;;
78871;SDS011;68247;43.514;1.502;2023-09-18T04:21:57;25.63;;;8.17;;
78871;SDS011;68247;43.514;1.502;2023-09-18T04:24:22;22.00;;;8.65;;
78871;SDS011;68247;43.514;1.502;2023-09-18T04:26:48;24.67;;;9.10;;
78871;SDS011;68247;43.514;1.502;2023-09-18T04:29:17;22.00;;;8.75;;
78871;SDS011;68247;43.514;1.502;2023-09-18T04:31:45;22.08;;;9.18;;
78871;SDS011;68247;43.514;1.502;2023-09-18T04:34:12;27.73;;;9.33;;
78871;SDS011;68247;43.514;1.502;2023-09-18T04:36:37;22.60;;;8.77;;
78871;SDS011;68247;43.514;1.502;2023-09-18T04:39:03;21.27;;;8.80;;
78871;SDS011;68247;43.514;1.502;2023-09-18T04:41:30;22.83;;;9.52;;
78871;SDS011;68247;43.514;1.502;2023-09-18T04:43:57;31.70;;;10.10;;
78871;SDS011;68247;43.514;1.502;2023-09-18T04:46:22;27.55;;;9.85;;
78871;SDS011;68247;43.514;1.502;2023-09-18T04:48:49;27.45;;;9.77;;
78871;SDS011;68247;43.514;1.502;2023-09-18T04:51:15;25.33;;;9.70;;
78871;SDS011;68247;43.514;1.502;2023-09-18T04:53:41;24.60;;;9.10;;
78871;SDS011;68247;43.514;1.502;2023-09-18T04:56:06;26.77;;;9.10;;
78871;SDS011;68247;43.514;1.502;2023-09-18T04:58:32;23.57;;;9.03;;
78871;SDS011;68247;43.514;1.502;2023-09-18T05:00:57;25.87;;;9.83;;
78871;SDS011;68247;43.514;1.502;2023-09-18T05:03:24;23.58;;;9.15;;
78871;SDS011;68247;43.514;1.502;2023-09-18T05:05:49;29.10;;;9.80;;
78871;SDS011;68247;43.514;1.502;2023-09-18T05:08:15;23.48;;;9.32;;
78871;SDS011;68247;43.514;1.502;2023-09-18T05:10:41;27.70;;;9.73;;
78871;SDS011;68247;43.514;1.502;2023-09-18T05:13:07;25.10;;;9.55;;
78871;SDS011;68247;43.514;1.502;2023-09-18T05:15:33;28.63;;;10.02;;
78871;SDS011;68247;43.514;1.502;2023-09-18T05:17:59;27.50;;;9.43;;
78871;SDS011;68247;43.514;1.502;2023-09-18T05:20:25;28.20;;;10.25;;
78871;SDS011;68247;43.514;1.502;2023-09-18T05:22:53;26.58;;;9.52;;
78871;SDS011;68247;43.514;1.502;2023-09-18T05:25:19;25.63;;;9.90;;
78871;SDS011;68247;43.514;1.502;2023-09-18T05:27:46;25.73;;;8.40;;
78871;SDS011;68247;43.514;1.502;2023-09-18T05:30:18;26.63;;;9.55;;
78871;SDS011;68247;43.514;1.502;2023-09-18T05:32:46;31.00;;;10.40;;
78871;SDS011;68247;43.514;1.502;2023-09-18T05:35:13;31.60;;;9.57;;
78871;SDS011;68247;43.514;1.502;2023-09-18T05:37:38;28.60;;;9.30;;
78871;SDS011;68247;43.514;1.502;2023-09-18T05:40:05;27.52;;;9.95;;
78871;SDS011;68247;43.514;1.502;2023-09-18T05:42:34;25.75;;;9.57;;
78871;SDS011;68247;43.514;1.502;2023-09-18T05:45:01;26.27;;;9.57;;
78871;SDS011;68247;43.514;1.502;2023-09-18T05:47:26;26.33;;;9.30;;
78871;SDS011;68247;43.514;1.502;2023-09-18T05:49:52;31.13;;;9.47;;
78871;SDS011;68247;43.514;1.502;2023-09-18T05:52:17;24.83;;;9.27;;
78871;SDS011;68247;43.514;1.502;2023-09-18T05:54:42;23.37;;;9.23;;
78871;SDS011;68247;43.514;1.502;2023-09-18T05:57:08;26.45;;;9.68;;
78871;SDS011;68247;43.514;1.502;2023-09-18T05:59:33;24.17;;;9.20;;
78871;SDS011;68247;43.514;1.502;2023-09-18T06:01:58;31.37;;;10.50;;
78871;SDS011;68247;43.514;1.502;2023-09-18T06:04:24;23.90;;;9.93;;
78871;SDS011;68247;43.514;1.502;2023-09-18T06:06:50;32.30;;;11.80;;
78871;SDS011;68247;43.514;1.502;2023-09-18T06:09:16;30.80;;;10.27;;
78871;SDS011;68247;43.514;1.502;2023-09-18T06:11:41;27.57;;;9.97;;
78871;SDS011;68247;43.514;1.502;2023-09-18T06:14:07;33.23;;;10.07;;
78871;SDS011;68247;43.514;1.502;2023-09-18T06:16:32;29.80;;;11.00;;
78871;SDS011;68247;43.514;1.502;2023-09-18T06:18:58;26.17;;;9.85;;
78871;SDS011;68247;43.514;1.502;2023-09-18T06:21:25;29.75;;;10.95;;
78871;SDS011;68247;43.514;1.502;2023-09-18T06:23:50;30.00;;;11.23;;
78871;SDS011;68247;43.514;1.502;2023-09-18T06:26:16;31.75;;;11.13;;
78871;SDS011;68247;43.514;1.502;2023-09-18T06:28:43;37.35;;;11.60;;
78871;SDS011;68247;43.514;1.502;2023-09-18T06:31:09;31.73;;;12.27;;
78871;SDS011;68247;43.514;1.502;2023-09-18T06:33:36;35.90;;;11.63;;
78871;SDS011;68247;43.514;1.502;2023-09-18T06:36:01;38.17;;;12.77;;
78871;SDS011;68247;43.514;1.502;2023-09-18T06:38:28;38.17;;;12.25;;
78871;SDS011;68247;43.514;1.502;2023-09-18T06:40:53;35.20;;;11.50;;
78871;SDS011;68247;43.514;1.502;2023-09-18T06:43:20;36.17;;;12.32;;
78871;SDS011;68247;43.514;1.502;2023-09-18T06:45:45;43.60;;;14.30;;
78871;SDS011;68247;43.514;1.502;2023-09-18T06:48:11;45.70;;;14.40;;
78871;SDS011;68247;43.514;1.502;2023-09-18T06:50:36;41.03;;;11.93;;
78871;SDS011;68247;43.514;1.502;2023-09-18T06:53:03;38.88;;;13.25;;
78871;SDS011;68247;43.514;1.502;2023-09-18T06:55:29;35.00;;;12.30;;
78871;SDS011;68247;43.514;1.502;2023-09-18T06:57:54;36.05;;;11.75;;
78871;SDS011;68247;43.514;1.502;2023-09-18T07:00:20;34.43;;;11.23;;
78871;SDS011;68247;43.514;1.502;2023-09-18T07:02:46;31.63;;;10.90;;
78871;SDS011;68247;43.514;1.502;2023-09-18T07:05:11;25.35;;;11.23;;
78871;SDS011;68247;43.514;1.502;2023-09-18T07:07:37;27.35;;;10.60;;
78871;SDS011;68247;43.514;1.502;2023-09-18T07:10:02;29.07;;;10.63;;
78871;SDS011;68247;43.514;1.502;2023-09-18T07:12:28;27.17;;;10.60;;
78871;SDS011;68247;43.514;1.502;2023-09-18T07:14:53;25.37;;;10.60;;
78871;SDS011;68247;43.514;1.502;2023-09-18T07:17:19;25.70;;;9.80;;
78871;SDS011;68247;43.514;1.502;2023-09-18T07:19:44;22.50;;;8.87;;
78871;SDS011;68247;43.514;1.502;2023-09-18T07:22:09;25.23;;;10.07;;
78871;SDS011;68247;43.514;1.502;2023-09-18T07:24:35;20.13;;;8.83;;
78871;SDS011;68247;43.514;1.502;2023-09-18T07:27:00;22.33;;;9.73;;
78871;SDS011;68247;43.514;1.502;2023-09-18T07:29:27;22.37;;;9.43;;
78871;SDS011;68247;43.514;1.502;2023-09-18T07:31:52;20.58;;;7.97;;
78871;SDS011;68247;43.514;1.502;2023-09-18T07:34:17;21.07;;;8.20;;
78871;SDS011;68247;43.514;1.502;2023-09-18T07:36:43;17.07;;;7.93;;
78871;SDS011;68247;43.514;1.502;2023-09-18T07:39:11;18.05;;;8.40;;
78871;SDS011;68247;43.514;1.502;2023-09-18T07:41:37;20.70;;;8.83;;
78871;SDS011;68247;43.514;1.502;2023-09-18T07:44:03;23.20;;;9.27;;
78871;SDS011;68247;43.514;1.502;2023-09-18T07:46:28;28.60;;;9.98;;
78871;SDS011;68247;43.514;1.502;2023-09-18T07:48:54;24.90;;;9.47;;
78871;SDS011;68247;43.514;1.502;2023-09-18T07:51:20;26.67;;;9.65;;
78871;SDS011;68247;43.514;1.502;2023-09-18T07:53:45;19.97;;;8.63;;
78871;SDS011;68247;43.514;1.502;2023-09-18T07:56:10;21.93;;;8.07;;
78871;SDS011;68247;43.514;1.502;2023-09-18T07:58:37;18.13;;;8.00;;
78871;SDS011;68247;43.514;1.502;2023-09-18T08:01:06;17.48;;;8.10;;
78871;SDS011;68247;43.514;1.502;2023-09-18T08:03:33;19.60;;;8.10;;
78871;SDS011;68247;43.514;1.502;2023-09-18T08:05:59;22.20;;;8.40;;
78871;SDS011;68247;43.514;1.502;2023-09-18T08:08:24;21.17;;;9.68;;
78871;SDS011;68247;43.514;1.502;2023-09-18T08:10:50;27.83;;;9.73;;
78871;SDS011;68247;43.514;1.502;2023-09-18T08:13:16;29.30;;;10.25;;
78871;SDS011;68247;43.514;1.502;2023-09-18T08:15:42;24.27;;;9.30;;
78871;SDS011;68247;43.514;1.502;2023-09-18T08:18:08;23.40;;;9.43;;
78871;SDS011;68247;43.514;1.502;2023-09-18T08:20:41;20.25;;;8.65;;
78871;SDS011;68247;43.514;1.502;2023-09-18T08:23:08;22.40;;;9.68;;
78871;SDS011;68247;43.514;1.502;2023-09-18T08:25:34;22.95;;;9.30;;
78871;SDS011;68247;43.514;1.502;2023-09-18T08:27:59;25.27;;;8.90;;
78871;SDS011;68247;43.514;1.502;2023-09-18T08:30:25;25.13;;;10.17;;
78871;SDS011;68247;43.514;1.502;2023-09-18T08:32:50;19.90;;;9.03;;
78871;SDS011;68247;43.514;1.502;2023-09-18T08:35:16;26.50;;;9.63;;
78871;SDS011;68247;43.514;1.502;2023-09-18T08:37:42;23.27;;;8.73;;
78871;SDS011;68247;43.514;1.502;2023-09-18T08:40:11;21.25;;;8.30;;
78871;SDS011;68247;43.514;1.502;2023-09-18T08:42:39;21.88;;;8.30;;
78871;SDS011;68247;43.514;1.502;2023-09-18T08:45:13;19.27;;;8.18;;
78871;SDS011;68247;43.514;1.502;2023-09-18T08:47:40;15.77;;;6.37;;
78871;SDS011;68247;43.514;1.502;2023-09-18T08:50:06;12.83;;;5.90;;
78871;SDS011;68247;43.514;1.502;2023-09-18T08:52:35;15.65;;;5.55;;
78871;SDS011;68247;43.514;1.502;2023-09-18T08:55:01;11.68;;;5.70;;
78871;SDS011;68247;43.514;1.502;2023-09-18T08:57:27;15.10;;;5.80;;
78871;SDS011;68247;43.514;1.502;2023-09-18T08:59:52;14.20;;;6.07;;
78871;SDS011;68247;43.514;1.502;2023-09-18T09:02:19;15.13;;;5.72;;
78871;SDS011;68247;43.514;1.502;2023-09-18T09:04:44;12.30;;;4.83;;
78871;SDS011;68247;43.514;1.502;2023-09-18T09:07:10;11.98;;;4.50;;
78871;SDS011;68247;43.514;1.502;2023-09-18T09:09:35;11.83;;;4.10;;
78871;SDS011;68247;43.514;1.502;2023-09-18T09:12:01;11.20;;;4.17;;
78871;SDS011;68247;43.514;1.502;2023-09-18T09:14:26;13.87;;;4.80;;
78871;SDS011;68247;43.514;1.502;2023-09-18T09:16:55;8.07;;;3.75;;
78871;SDS011;68247;43.514;1.502;2023-09-18T09:19:35;7.72;;;3.53;;
78871;SDS011;68247;43.514;1.502;2023-09-18T09:22:07;11.10;;;3.60;;
78871;SDS011;68247;43.514;1.502;2023-09-18T09:24:37;7.95;;;3.67;;
78871;SDS011;68247;43.514;1.502;2023-09-18T09:27:07;9.73;;;4.00;;
78871;SDS011;68247;43.514;1.502;2023-09-18T09:29:33;8.60;;;3.78;;
78871;SDS011;68247;43.514;1.502;2023-09-18T09:32:15;8.35;;;3.83;;
78871;SDS011;68247;43.514;1.502;2023-09-18T09:34:42;8.83;;;3.80;;
78871;SDS011;68247;43.514;1.502;2023-09-18T09:37:08;9.63;;;4.10;;
78871;SDS011;68247;43.514;1.502;2023-09-18T09:39:34;9.40;;;3.73;;
78871;SDS011;68247;43.514;1.502;2023-09-18T09:42:00;12.97;;;4.20;;
78871;SDS011;68247;43.514;1.502;2023-09-18T09:44:27;10.75;;;5.22;;
78871;SDS011;68247;43.514;1.502;2023-09-18T09:46:54;10.35;;;4.40;;
78871;SDS011;68247;43.514;1.502;2023-09-18T09:49:19;10.10;;;3.97;;
78871;SDS011;68247;43.514;1.502;2023-09-18T09:51:46;10.02;;;4.47;;
78871;SDS011;68247;43.514;1.502;2023-09-18T09:54:11;12.03;;;4.80;;
78871;SDS011;68247;43.514;1.502;2023-09-18T09:59:10;12.70;;;4.38;;
78871;SDS011;68247;43.514;1.502;2023-09-18T10:01:37;10.25;;;4.28;;
78871;SDS011;68247;43.514;1.502;2023-09-18T10:04:08;8.20;;;3.43;;
78871;SDS011;68247;43.514;1.502;2023-09-18T10:06:35;7.32;;;2.88;;
78871;SDS011;68247;43.514;1.502;2023-09-18T10:09:04;5.80;;;3.08;;
78871;SDS011;68247;43.514;1.502;2023-09-18T10:11:32;8.48;;;3.03;;
78871;SDS011;68247;43.514;1.502;2023-09-18T10:14:03;8.45;;;3.35;;
78871;SDS011;68247;43.514;1.502;2023-09-18T10:16:32;10.13;;;3.40;;
78871;SDS011;68247;43.514;1.502;2023-09-18T10:24:27;7.35;;;3.67;;
78871;SDS011;68247;43.514;1.502;2023-09-18T10:27:00;10.73;;;3.72;;
78871;SDS011;68247;43.514;1.502;2023-09-18T10:29:29;6.87;;;3.47;;
78871;SDS011;68247;43.514;1.502;2023-09-18T10:31:56;7.93;;;3.03;;
78871;SDS011;68247;43.514;1.502;2023-09-18T10:34:22;6.55;;;3.08;;
78871;SDS011;68247;43.514;1.502;2023-09-18T10:36:50;7.38;;;3.17;;
78871;SDS011;68247;43.514;1.502;2023-09-18T10:39:16;6.77;;;2.97;;
78871;SDS011;68247;43.514;1.502;2023-09-18T10:41:48;7.47;;;3.20;;
78871;SDS011;68247;43.514;1.502;2023-09-18T10:44:15;9.07;;;3.17;;
78871;SDS011;68247;43.514;1.502;2023-09-18T10:46:44;9.35;;;3.92;;
78871;SDS011;68247;43.514;1.502;2023-09-18T10:49:10;8.07;;;4.25;;
78871;SDS011;68247;43.514;1.502;2023-09-18T10:51:37;10.73;;;4.30;;
78871;SDS011;68247;43.514;1.502;2023-09-18T10:54:07;7.35;;;4.10;;
78871;SDS011;68247;43.514;1.502;2023-09-18T10:56:33;7.28;;;4.38;;
78871;SDS011;68247;43.514;1.502;2023-09-18T10:58:59;9.37;;;4.00;;
78871;SDS011;68247;43.514;1.502;2023-09-18T11:01:25;8.60;;;3.63;;
78871;SDS011;68247;43.514;1.502;2023-09-18T11:03:56;7.80;;;3.88;;
78871;SDS011;68247;43.514;1.502;2023-09-18T11:06:25;6.03;;;3.80;;
78871;SDS011;68247;43.514;1.502;2023-09-18T11:08:53;9.00;;;3.70;;
78871;SDS011;68247;43.514;1.502;2023-09-18T11:11:26;10.60;;;4.00;;
78871;SDS011;68247;43.514;1.502;2023-09-18T11:13:54;7.70;;;4.25;;
78871;SDS011;68247;43.514;1.502;2023-09-18T11:19:07;8.50;;;4.00;;
78871;SDS011;68247;43.514;1.502;2023-09-18T11:21:34;7.70;;;3.85;;
78871;SDS011;68247;43.514;1.502;2023-09-18T11:24:15;6.83;;;3.80;;
78871;SDS011;68247;43.514;1.502;2023-09-18T11:26:44;7.65;;;3.78;;
78871;SDS011;68247;43.514;1.502;2023-09-18T11:29:11;7.80;;;3.80;;
78871;SDS011;68247;43.514;1.502;2023-09-18T11:34:21;5.40;;;3.67;;
78871;SDS011;68247;43.514;1.502;2023-09-18T11:36:47;7.23;;;3.80;;
78871;SDS011;68247;43.514;1.502;2023-09-18T11:39:13;7.57;;;3.50;;
78871;SDS011;68247;43.514;1.502;2023-09-18T11:41:39;5.43;;;3.40;;
78871;SDS011;68247;43.514;1.502;2023-09-18T11:46:39;5.90;;;3.42;;
78871;SDS011;68247;43.514;1.502;2023-09-18T11:49:12;6.50;;;3.42;;
78871;SDS011;68247;43.514;1.502;2023-09-18T11:51:38;6.18;;;3.47;;
78871;SDS011;68247;43.514;1.502;2023-09-18T11:54:05;5.83;;;3.50;;
78871;SDS011;68247;43.514;1.502;2023-09-18T11:56:32;6.45;;;3.38;;
78871;SDS011;68247;43.514;1.502;2023-09-18T11:58:58;4.88;;;3.20;;
78871;SDS011;68247;43.514;1.502;2023-09-18T12:01:24;5.85;;;3.40;;
78871;SDS011;68247;43.514;1.502;2023-09-18T12:03:54;6.33;;;3.27;;
78871;SDS011;68247;43.514;1.502;2023-09-18T12:06:20;4.60;;;3.63;;
78871;SDS011;68247;43.514;1.502;2023-09-18T12:08:46;7.18;;;4.00;;
78871;SDS011;68247;43.514;1.502;2023-09-18T12:11:12;7.00;;;3.63;;
78871;SDS011;68247;43.514;1.502;2023-09-18T12:13:42;8.13;;;4.10;;
78871;SDS011;68247;43.514;1.502;2023-09-18T12:16:08;5.88;;;3.95;;
78871;SDS011;68247;43.514;1.502;2023-09-18T12:18:34;6.80;;;3.38;;
78871;SDS011;68247;43.514;1.502;2023-09-18T12:21:02;4.68;;;3.63;;
78871;SDS011;68247;43.514;1.502;2023-09-18T12:23:35;6.50;;;3.90;;
78871;SDS011;68247;43.514;1.502;2023-09-18T12:26:01;5.75;;;3.58;;
78871;SDS011;68247;43.514;1.502;2023-09-18T12:28:28;6.05;;;3.50;;
78871;SDS011;68247;43.514;1.502;2023-09-18T12:30:54;4.93;;;3.57;;
78871;SDS011;68247;43.514;1.502;2023-09-18T12:33:22;8.50;;;3.88;;
78871;SDS011;68247;43.514;1.502;2023-09-18T12:35:48;6.20;;;3.65;;
78871;SDS011;68247;43.514;1.502;2023-09-18T12:38:15;6.13;;;3.35;;
78871;SDS011;68247;43.514;1.502;2023-09-18T12:40:41;5.97;;;3.67;;
78871;SDS011;68247;43.514;1.502;2023-09-18T12:43:09;5.13;;;3.47;;
78871;SDS011;68247;43.514;1.502;2023-09-18T12:45:35;5.68;;;3.42;;
78871;SDS011;68247;43.514;1.502;2023-09-18T12:48:01;7.77;;;3.70;;
78871;SDS011;68247;43.514;1.502;2023-09-18T12:50:27;6.25;;;3.20;;
78871;SDS011;68247;43.514;1.502;2023-09-18T12:52:52;6.40;;;3.42;;
78871;SDS011;68247;43.514;1.502;2023-09-18T12:55:24;6.07;;;3.50;;
78871;SDS011;68247;43.514;1.502;2023-09-18T12:57:51;6.72;;;3.10;;
78871;SDS011;68247;43.514;1.502;2023-09-18T13:00:20;6.30;;;3.40;;
78871;SDS011;68247;43.514;1.502;2023-09-18T13:02:48;4.65;;;2.95;;
78871;SDS011;68247;43.514;1.502;2023-09-18T13:05:19;7.53;;;3.30;;
78871;SDS011;68247;43.514;1.502;2023-09-18T13:07:45;5.47;;;3.13;;
78871;SDS011;68247;43.514;1.502;2023-09-18T13:10:12;6.93;;;3.97;;
78871;SDS011;68247;43.514;1.502;2023-09-18T13:15:05;8.67;;;3.30;;
78871;SDS011;68247;43.514;1.502;2023-09-18T13:17:37;7.57;;;3.60;;
78871;SDS011;68247;43.514;1.502;2023-09-18T13:20:09;8.68;;;3.90;;
78871;SDS011;68247;43.514;1.502;2023-09-18T13:22:39;5.88;;;3.35;;
78871;SDS011;68247;43.514;1.502;2023-09-18T13:25:07;6.95;;;3.70;;
78871;SDS011;68247;43.514;1.502;2023-09-18T13:27:38;9.13;;;3.67;;
78871;SDS011;68247;43.514;1.502;2023-09-18T13:30:05;7.35;;;3.55;;
78871;SDS011;68247;43.514;1.502;2023-09-18T13:32:33;12.13;;;3.60;;
78871;SDS011;68247;43.514;1.502;2023-09-18T13:34:59;8.52;;;3.63;;
78871;SDS011;68247;43.514;1.502;2023-09-18T13:37:25;8.60;;;3.67;;
78871;SDS011;68247;43.514;1.502;2023-09-18T13:39:52;7.45;;;3.65;;
78871;SDS011;68247;43.514;1.502;2023-09-18T13:42:17;9.10;;;3.50;;
78871;SDS011;68247;43.514;1.502;2023-09-18T13:44:43;5.88;;;3.25;;
78871;SDS011;68247;43.514;1.502;2023-09-18T13:47:08;7.03;;;3.23;;
78871;SDS011;68247;43.514;1.502;2023-09-18T13:49:33;4.80;;;3.00;;
78871;SDS011;68247;43.514;1.502;2023-09-18T13:51:59;5.93;;;2.70;;
78871;SDS011;68247;43.514;1.502;2023-09-18T13:54:25;5.20;;;2.78;;
78871;SDS011;68247;43.514;1.502;2023-09-18T13:56:50;3.77;;;2.40;;
78871;SDS011;68247;43.514;1.502;2023-09-18T13:59:16;5.30;;;2.72;;
78871;SDS011;68247;43.514;1.502;2023-09-18T14:01:42;4.43;;;2.53;;
78871;SDS011;68247;43.514;1.502;2023-09-18T14:04:07;5.87;;;2.43;;
78871;SDS011;68247;43.514;1.502;2023-09-18T14:06:32;6.00;;;2.10;;
78871;SDS011;68247;43.514;1.502;2023-09-18T14:08:58;3.80;;;2.13;;
78871;SDS011;68247;43.514;1.502;2023-09-18T14:11:23;6.43;;;2.60;;
78871;SDS011;68247;43.514;1.502;2023-09-18T14:13:49;4.93;;;2.43;;
78871;SDS011;68247;43.514;1.502;2023-09-18T14:16:14;4.53;;;2.30;;
78871;SDS011;68247;43.514;1.502;2023-09-18T14:18:39;5.50;;;2.35;;
78871;SDS011;68247;43.514;1.502;2023-09-18T14:21:05;4.67;;;1.90;;
78871;SDS011;68247;43.514;1.502;2023-09-18T14:23:31;5.50;;;2.03;;
78871;SDS011;68247;43.514;1.502;2023-09-18T14:25:58;4.72;;;2.17;;
78871;SDS011;68247;43.514;1.502;2023-09-18T14:28:25;7.57;;;2.67;;
78871;SDS011;68247;43.514;1.502;2023-09-18T14:30:51;6.47;;;2.75;;
78871;SDS011;68247;43.514;1.502;2023-09-18T14:33:16;6.33;;;2.30;;
78871;SDS011;68247;43.514;1.502;2023-09-18T14:35:42;5.07;;;2.13;;
78871;SDS011;68247;43.514;1.502;2023-09-18T14:38:07;5.60;;;2.40;;
78871;SDS011;68247;43.514;1.502;2023-09-18T14:40:33;5.68;;;2.30;;
78871;SDS011;68247;43.514;1.502;2023-09-18T14:42:58;5.40;;;2.13;;
78871;SDS011;68247;43.514;1.502;2023-09-18T14:45:24;6.97;;;2.22;;
78871;SDS011;68247;43.514;1.502;2023-09-18T14:47:50;4.33;;;2.30;;
78871;SDS011;68247;43.514;1.502;2023-09-18T14:50:15;4.50;;;2.35;;
78871;SDS011;68247;43.514;1.502;2023-09-18T14:52:41;5.70;;;2.00;;
78871;SDS011;68247;43.514;1.502;2023-09-18T14:55:06;4.53;;;1.90;;